sensor_id;sensor_type;location;lat;lon;timestamp;P1;durP1;ratioP1;P2;durP2;ratioP2
10904;SDS011;5505;51.450;9.254;2023-04-24T00:00:03;2.57;;;0.80;;
10904;SDS011;5505;51.450;9.254;2023-04-24T00:02:52;0.60;;;0.60;;
10904;SDS011;5505;51.450;9.254;2023-04-24T00:05:42;1.00;;;0.43;;
10904;SDS011;5505;51.450;9.254;2023-04-24T00:08:30;1.53;;;0.67;;
10904;SDS011;5505;51.450;9.254;2023-04-24T00:11:17;1.47;;;0.50;;
10904;SDS011;5505;51.450;9.254;2023-04-24T00:14:05;1.10;;;0.67;;
10904;SDS011;5505;51.450;9.254;2023-04-24T00:16:52;1.73;;;0.53;;
10904;SDS011;5505;51.450;9.254;2023-04-24T00:19:40;0.50;;;0.50;;
10904;SDS011;5505;51.450;9.254;2023-04-24T00:22:27;1.50;;;0.60;;
10904;SDS011;5505;51.450;9.254;2023-04-24T00:25:15;0.60;;;0.40;;
10904;SDS011;5505;51.450;9.254;2023-04-24T00:28:02;0.77;;;0.60;;
10904;SDS011;5505;51.450;9.254;2023-04-24T00:30:49;0.50;;;0.50;;
10904;SDS011;5505;51.450;9.254;2023-04-24T00:33:36;0.83;;;0.40;;
10904;SDS011;5505;51.450;9.254;2023-04-24T00:36:24;1.47;;;0.50;;
10904;SDS011;5505;51.450;9.254;2023-04-24T00:39:12;2.03;;;0.50;;
10904;SDS011;5505;51.450;9.254;2023-04-24T00:41:59;0.87;;;0.50;;
10904;SDS011;5505;51.450;9.254;2023-04-24T00:44:46;1.00;;;0.67;;
10904;SDS011;5505;51.450;9.254;2023-04-24T00:47:34;0.43;;;0.43;;
10904;SDS011;5505;51.450;9.254;2023-04-24T00:50:21;0.77;;;0.20;;
10904;SDS011;5505;51.450;9.254;2023-04-24T00:53:10;0.70;;;0.50;;
10904;SDS011;5505;51.450;9.254;2023-04-24T00:55:57;0.37;;;0.30;;
10904;SDS011;5505;51.450;9.254;2023-04-24T00:58:44;0.57;;;0.30;;
10904;SDS011;5505;51.450;9.254;2023-04-24T01:01:31;0.73;;;0.30;;
10904;SDS011;5505;51.450;9.254;2023-04-24T01:04:18;0.87;;;0.40;;
10904;SDS011;5505;51.450;9.254;2023-04-24T01:07:05;1.10;;;0.30;;
10904;SDS011;5505;51.450;9.254;2023-04-24T01:09:57;0.43;;;0.30;;
10904;SDS011;5505;51.450;9.254;2023-04-24T01:12:44;0.30;;;0.20;;
10904;SDS011;5505;51.450;9.254;2023-04-24T01:15:31;3.43;;;0.50;;
10904;SDS011;5505;51.450;9.254;2023-04-24T01:18:18;0.30;;;0.30;;
10904;SDS011;5505;51.450;9.254;2023-04-24T01:21:06;0.47;;;0.30;;
10904;SDS011;5505;51.450;9.254;2023-04-24T01:23:56;1.03;;;0.30;;
10904;SDS011;5505;51.450;9.254;2023-04-24T01:26:43;1.27;;;0.30;;
10904;SDS011;5505;51.450;9.254;2023-04-24T01:29:31;1.03;;;0.50;;
10904;SDS011;5505;51.450;9.254;2023-04-24T01:32:18;0.70;;;0.40;;
10904;SDS011;5505;51.450;9.254;2023-04-24T01:35:06;0.80;;;0.50;;
10904;SDS011;5505;51.450;9.254;2023-04-24T01:37:53;2.43;;;0.50;;
10904;SDS011;5505;51.450;9.254;2023-04-24T01:40:42;0.63;;;0.57;;
10904;SDS011;5505;51.450;9.254;2023-04-24T01:43:30;0.80;;;0.50;;
10904;SDS011;5505;51.450;9.254;2023-04-24T01:46:17;0.70;;;0.50;;
10904;SDS011;5505;51.450;9.254;2023-04-24T01:49:04;2.43;;;0.60;;
10904;SDS011;5505;51.450;9.254;2023-04-24T01:51:51;0.40;;;0.40;;
10904;SDS011;5505;51.450;9.254;2023-04-24T01:54:38;1.80;;;0.40;;
10904;SDS011;5505;51.450;9.254;2023-04-24T01:57:27;0.93;;;0.50;;
10904;SDS011;5505;51.450;9.254;2023-04-24T02:00:15;0.47;;;0.47;;
10904;SDS011;5505;51.450;9.254;2023-04-24T02:03:02;0.40;;;0.37;;
10904;SDS011;5505;51.450;9.254;2023-04-24T02:05:49;0.30;;;0.30;;
10904;SDS011;5505;51.450;9.254;2023-04-24T02:08:36;2.13;;;0.40;;
10904;SDS011;5505;51.450;9.254;2023-04-24T02:11:24;1.57;;;0.50;;
10904;SDS011;5505;51.450;9.254;2023-04-24T02:14:13;2.03;;;0.47;;
10904;SDS011;5505;51.450;9.254;2023-04-24T02:17:00;0.63;;;0.47;;
10904;SDS011;5505;51.450;9.254;2023-04-24T02:19:47;1.20;;;0.50;;
10904;SDS011;5505;51.450;9.254;2023-04-24T02:22:34;0.73;;;0.60;;
10904;SDS011;5505;51.450;9.254;2023-04-24T02:25:21;0.70;;;0.40;;
10904;SDS011;5505;51.450;9.254;2023-04-24T02:28:09;0.90;;;0.60;;
10904;SDS011;5505;51.450;9.254;2023-04-24T02:30:57;1.53;;;0.70;;
10904;SDS011;5505;51.450;9.254;2023-04-24T02:33:45;2.37;;;1.20;;
10904;SDS011;5505;51.450;9.254;2023-04-24T02:36:32;1.77;;;0.90;;
10904;SDS011;5505;51.450;9.254;2023-04-24T02:39:19;1.33;;;1.00;;
10904;SDS011;5505;51.450;9.254;2023-04-24T02:42:06;1.63;;;1.13;;
10904;SDS011;5505;51.450;9.254;2023-04-24T02:44:53;1.20;;;1.10;;
10904;SDS011;5505;51.450;9.254;2023-04-24T02:47:41;2.43;;;1.40;;
10904;SDS011;5505;51.450;9.254;2023-04-24T02:50:28;2.70;;;1.80;;
10904;SDS011;5505;51.450;9.254;2023-04-24T02:53:16;1.80;;;1.63;;
10904;SDS011;5505;51.450;9.254;2023-04-24T02:56:04;2.00;;;1.70;;
10904;SDS011;5505;51.450;9.254;2023-04-24T02:58:51;5.07;;;1.80;;
10904;SDS011;5505;51.450;9.254;2023-04-24T03:01:38;2.90;;;1.60;;
10904;SDS011;5505;51.450;9.254;2023-04-24T03:04:26;2.17;;;1.80;;
10904;SDS011;5505;51.450;9.254;2023-04-24T03:07:13;2.47;;;2.27;;
10904;SDS011;5505;51.450;9.254;2023-04-24T03:10:01;4.47;;;2.10;;
10904;SDS011;5505;51.450;9.254;2023-04-24T03:12:48;2.47;;;1.87;;
10904;SDS011;5505;51.450;9.254;2023-04-24T03:15:35;2.40;;;1.80;;
10904;SDS011;5505;51.450;9.254;2023-04-24T03:18:22;2.33;;;1.97;;
10904;SDS011;5505;51.450;9.254;2023-04-24T03:21:10;2.23;;;1.83;;
10904;SDS011;5505;51.450;9.254;2023-04-24T03:23:58;1.50;;;1.40;;
10904;SDS011;5505;51.450;9.254;2023-04-24T03:26:45;2.20;;;1.50;;
10904;SDS011;5505;51.450;9.254;2023-04-24T03:29:32;2.00;;;1.60;;
10904;SDS011;5505;51.450;9.254;2023-04-24T03:32:19;2.10;;;1.37;;
10904;SDS011;5505;51.450;9.254;2023-04-24T03:35:06;2.03;;;1.40;;
10904;SDS011;5505;51.450;9.254;2023-04-24T03:37:55;1.30;;;1.20;;
10904;SDS011;5505;51.450;9.254;2023-04-24T03:40:42;1.63;;;1.30;;
10904;SDS011;5505;51.450;9.254;2023-04-24T03:43:29;1.37;;;1.10;;
10904;SDS011;5505;51.450;9.254;2023-04-24T03:46:18;2.57;;;1.10;;
10904;SDS011;5505;51.450;9.254;2023-04-24T03:49:05;1.77;;;1.30;;
10904;SDS011;5505;51.450;9.254;2023-04-24T03:51:52;2.87;;;1.40;;
10904;SDS011;5505;51.450;9.254;2023-04-24T03:54:40;1.10;;;0.97;;
10904;SDS011;5505;51.450;9.254;2023-04-24T03:57:28;1.03;;;1.03;;
10904;SDS011;5505;51.450;9.254;2023-04-24T04:00:15;1.10;;;1.00;;
10904;SDS011;5505;51.450;9.254;2023-04-24T04:03:03;1.40;;;1.30;;
10904;SDS011;5505;51.450;9.254;2023-04-24T04:05:50;1.50;;;1.40;;
10904;SDS011;5505;51.450;9.254;2023-04-24T04:08:38;1.57;;;1.10;;
10904;SDS011;5505;51.450;9.254;2023-04-24T04:11:26;1.63;;;1.40;;
10904;SDS011;5505;51.450;9.254;2023-04-24T04:14:13;2.90;;;1.60;;
10904;SDS011;5505;51.450;9.254;2023-04-24T04:17:00;2.97;;;1.50;;
10904;SDS011;5505;51.450;9.254;2023-04-24T04:19:47;1.40;;;1.30;;
10904;SDS011;5505;51.450;9.254;2023-04-24T04:22:35;1.47;;;1.37;;
10904;SDS011;5505;51.450;9.254;2023-04-24T04:25:23;1.20;;;1.10;;
10904;SDS011;5505;51.450;9.254;2023-04-24T04:28:11;1.63;;;1.10;;
10904;SDS011;5505;51.450;9.254;2023-04-24T04:30:58;1.73;;;1.10;;
10904;SDS011;5505;51.450;9.254;2023-04-24T04:33:46;1.53;;;1.03;;
10904;SDS011;5505;51.450;9.254;2023-04-24T04:36:33;1.73;;;1.30;;
10904;SDS011;5505;51.450;9.254;2023-04-24T04:39:21;2.37;;;1.23;;
10904;SDS011;5505;51.450;9.254;2023-04-24T04:42:08;0.97;;;0.97;;
10904;SDS011;5505;51.450;9.254;2023-04-24T04:44:57;1.73;;;1.00;;
10904;SDS011;5505;51.450;9.254;2023-04-24T04:47:44;1.63;;;1.00;;
10904;SDS011;5505;51.450;9.254;2023-04-24T04:50:31;1.23;;;1.00;;
10904;SDS011;5505;51.450;9.254;2023-04-24T04:53:18;1.40;;;0.80;;
10904;SDS011;5505;51.450;9.254;2023-04-24T04:56:05;1.90;;;1.00;;
10904;SDS011;5505;51.450;9.254;2023-04-24T04:58:52;2.50;;;0.90;;
10904;SDS011;5505;51.450;9.254;2023-04-24T05:01:41;1.83;;;1.67;;
10904;SDS011;5505;51.450;9.254;2023-04-24T05:04:28;1.20;;;1.10;;
10904;SDS011;5505;51.450;9.254;2023-04-24T05:07:15;4.37;;;3.80;;
10904;SDS011;5505;51.450;9.254;2023-04-24T05:10:03;0.83;;;0.83;;
10904;SDS011;5505;51.450;9.254;2023-04-24T05:12:50;1.40;;;0.60;;
10904;SDS011;5505;51.450;9.254;2023-04-24T05:15:38;1.80;;;1.20;;
10904;SDS011;5505;51.450;9.254;2023-04-24T05:18:26;0.90;;;0.43;;
10904;SDS011;5505;51.450;9.254;2023-04-24T05:21:13;1.87;;;0.80;;
10904;SDS011;5505;51.450;9.254;2023-04-24T05:24:00;2.77;;;0.83;;
10904;SDS011;5505;51.450;9.254;2023-04-24T05:26:47;1.23;;;0.60;;
10904;SDS011;5505;51.450;9.254;2023-04-24T05:29:34;0.83;;;0.50;;
10904;SDS011;5505;51.450;9.254;2023-04-24T05:32:21;1.90;;;0.73;;
10904;SDS011;5505;51.450;9.254;2023-04-24T05:35:10;1.93;;;0.87;;
10904;SDS011;5505;51.450;9.254;2023-04-24T05:37:57;0.60;;;0.57;;
10904;SDS011;5505;51.450;9.254;2023-04-24T05:40:44;1.10;;;0.90;;
10904;SDS011;5505;51.450;9.254;2023-04-24T05:43:31;0.70;;;0.70;;
10904;SDS011;5505;51.450;9.254;2023-04-24T05:46:18;1.83;;;0.80;;
10904;SDS011;5505;51.450;9.254;2023-04-24T05:49:05;0.90;;;0.90;;
10904;SDS011;5505;51.450;9.254;2023-04-24T05:51:54;2.30;;;1.13;;
10904;SDS011;5505;51.450;9.254;2023-04-24T05:54:41;1.10;;;0.90;;
10904;SDS011;5505;51.450;9.254;2023-04-24T05:57:28;1.63;;;1.00;;
10904;SDS011;5505;51.450;9.254;2023-04-24T06:00:15;1.40;;;1.30;;
10904;SDS011;5505;51.450;9.254;2023-04-24T06:03:03;2.73;;;0.90;;
10904;SDS011;5505;51.450;9.254;2023-04-24T06:05:50;0.90;;;0.90;;
10904;SDS011;5505;51.450;9.254;2023-04-24T06:08:39;2.20;;;1.20;;
10904;SDS011;5505;51.450;9.254;2023-04-24T06:11:27;1.57;;;1.07;;
10904;SDS011;5505;51.450;9.254;2023-04-24T06:14:15;1.40;;;1.30;;
10904;SDS011;5505;51.450;9.254;2023-04-24T06:17:02;1.40;;;1.30;;
10904;SDS011;5505;51.450;9.254;2023-04-24T06:19:50;1.70;;;1.60;;
10904;SDS011;5505;51.450;9.254;2023-04-24T06:22:37;1.60;;;1.50;;
10904;SDS011;5505;51.450;9.254;2023-04-24T06:25:26;3.83;;;2.00;;
10904;SDS011;5505;51.450;9.254;2023-04-24T06:28:14;2.53;;;1.73;;
10904;SDS011;5505;51.450;9.254;2023-04-24T06:31:01;2.37;;;1.87;;
10904;SDS011;5505;51.450;9.254;2023-04-24T06:33:48;2.33;;;2.13;;
10904;SDS011;5505;51.450;9.254;2023-04-24T06:36:35;3.77;;;3.40;;
10904;SDS011;5505;51.450;9.254;2023-04-24T06:39:22;5.53;;;2.67;;
10904;SDS011;5505;51.450;9.254;2023-04-24T06:42:11;3.40;;;3.10;;
10904;SDS011;5505;51.450;9.254;2023-04-24T06:44:58;2.87;;;2.53;;
10904;SDS011;5505;51.450;9.254;2023-04-24T06:47:45;3.17;;;2.93;;
10904;SDS011;5505;51.450;9.254;2023-04-24T06:50:32;3.30;;;3.00;;
10904;SDS011;5505;51.450;9.254;2023-04-24T06:53:20;3.40;;;3.10;;
10904;SDS011;5505;51.450;9.254;2023-04-24T06:56:07;3.23;;;2.93;;
10904;SDS011;5505;51.450;9.254;2023-04-24T06:58:55;3.17;;;2.97;;
10904;SDS011;5505;51.450;9.254;2023-04-24T07:01:43;3.57;;;3.27;;
10904;SDS011;5505;51.450;9.254;2023-04-24T07:04:30;3.47;;;3.17;;
10904;SDS011;5505;51.450;9.254;2023-04-24T07:07:17;3.47;;;3.17;;
10904;SDS011;5505;51.450;9.254;2023-04-24T07:10:05;3.73;;;3.43;;
10904;SDS011;5505;51.450;9.254;2023-04-24T07:12:53;3.53;;;3.00;;
10904;SDS011;5505;51.450;9.254;2023-04-24T07:15:42;3.50;;;3.20;;
10904;SDS011;5505;51.450;9.254;2023-04-24T07:18:29;4.23;;;3.17;;
10904;SDS011;5505;51.450;9.254;2023-04-24T07:21:16;3.13;;;2.90;;
10904;SDS011;5505;51.450;9.254;2023-04-24T07:24:03;3.60;;;3.30;;
10904;SDS011;5505;51.450;9.254;2023-04-24T07:26:54;3.63;;;2.97;;
10904;SDS011;5505;51.450;9.254;2023-04-24T07:29:41;3.50;;;3.20;;
10904;SDS011;5505;51.450;9.254;2023-04-24T07:32:30;3.80;;;3.20;;
10904;SDS011;5505;51.450;9.254;2023-04-24T07:35:17;3.30;;;3.00;;
10904;SDS011;5505;51.450;9.254;2023-04-24T07:38:05;4.07;;;3.33;;
10904;SDS011;5505;51.450;9.254;2023-04-24T07:40:52;2.93;;;2.70;;
10904;SDS011;5505;51.450;9.254;2023-04-24T07:43:39;3.07;;;2.77;;
10904;SDS011;5505;51.450;9.254;2023-04-24T07:46:26;2.80;;;2.60;;
10904;SDS011;5505;51.450;9.254;2023-04-24T07:49:16;4.70;;;2.67;;
10904;SDS011;5505;51.450;9.254;2023-04-24T07:52:03;3.17;;;2.87;;
10904;SDS011;5505;51.450;9.254;2023-04-24T07:54:50;3.13;;;2.90;;
10904;SDS011;5505;51.450;9.254;2023-04-24T07:57:43;2.90;;;2.60;;
10904;SDS011;5505;51.450;9.254;2023-04-24T08:00:30;2.67;;;2.40;;
10904;SDS011;5505;51.450;9.254;2023-04-24T08:03:17;3.30;;;3.00;;
10904;SDS011;5505;51.450;9.254;2023-04-24T08:06:06;2.90;;;2.60;;
10904;SDS011;5505;51.450;9.254;2023-04-24T08:08:53;3.23;;;2.70;;
10904;SDS011;5505;51.450;9.254;2023-04-24T08:11:40;2.97;;;2.50;;
10904;SDS011;5505;51.450;9.254;2023-04-24T08:14:27;3.30;;;2.50;;
10904;SDS011;5505;51.450;9.254;2023-04-24T08:17:15;4.73;;;2.90;;
10904;SDS011;5505;51.450;9.254;2023-04-24T08:20:03;2.93;;;2.70;;
10904;SDS011;5505;51.450;9.254;2023-04-24T08:22:52;3.97;;;2.43;;
10904;SDS011;5505;51.450;9.254;2023-04-24T08:25:39;2.93;;;2.60;;
10904;SDS011;5505;51.450;9.254;2023-04-24T08:28:26;2.83;;;2.60;;
10904;SDS011;5505;51.450;9.254;2023-04-24T08:31:14;2.70;;;2.50;;
10904;SDS011;5505;51.450;9.254;2023-04-24T08:34:01;2.77;;;2.50;;
10904;SDS011;5505;51.450;9.254;2023-04-24T08:36:48;3.03;;;2.73;;
10904;SDS011;5505;51.450;9.254;2023-04-24T08:39:36;3.70;;;2.50;;
10904;SDS011;5505;51.450;9.254;2023-04-24T08:42:23;2.57;;;2.37;;
10904;SDS011;5505;51.450;9.254;2023-04-24T08:45:11;3.47;;;2.70;;
10904;SDS011;5505;51.450;9.254;2023-04-24T08:47:58;2.73;;;2.20;;
10904;SDS011;5505;51.450;9.254;2023-04-24T08:50:46;2.60;;;2.40;;
10904;SDS011;5505;51.450;9.254;2023-04-24T08:53:35;2.87;;;2.50;;
10904;SDS011;5505;51.450;9.254;2023-04-24T08:56:23;4.07;;;2.47;;
10904;SDS011;5505;51.450;9.254;2023-04-24T08:59:11;3.03;;;2.30;;
10904;SDS011;5505;51.450;9.254;2023-04-24T09:01:59;2.33;;;2.13;;
10904;SDS011;5505;51.450;9.254;2023-04-24T09:04:46;2.20;;;2.00;;
10904;SDS011;5505;51.450;9.254;2023-04-24T09:07:34;2.17;;;2.00;;
10904;SDS011;5505;51.450;9.254;2023-04-24T09:10:22;2.90;;;1.90;;
10904;SDS011;5505;51.450;9.254;2023-04-24T09:13:11;2.80;;;1.80;;
10904;SDS011;5505;51.450;9.254;2023-04-24T09:15:58;3.77;;;2.10;;
10904;SDS011;5505;51.450;9.254;2023-04-24T09:18:46;6.17;;;2.20;;
10904;SDS011;5505;51.450;9.254;2023-04-24T09:21:33;4.23;;;1.90;;
10904;SDS011;5505;51.450;9.254;2023-04-24T09:24:21;2.17;;;2.03;;
10904;SDS011;5505;51.450;9.254;2023-04-24T09:27:08;1.77;;;1.67;;
10904;SDS011;5505;51.450;9.254;2023-04-24T09:30:01;2.43;;;1.73;;
10904;SDS011;5505;51.450;9.254;2023-04-24T09:32:48;1.70;;;1.50;;
10904;SDS011;5505;51.450;9.254;2023-04-24T09:35:35;1.83;;;1.60;;
10904;SDS011;5505;51.450;9.254;2023-04-24T09:38:30;2.00;;;1.53;;
10904;SDS011;5505;51.450;9.254;2023-04-24T09:41:17;1.70;;;1.60;;
10904;SDS011;5505;51.450;9.254;2023-04-24T09:44:10;1.40;;;1.30;;
10904;SDS011;5505;51.450;9.254;2023-04-24T09:46:59;2.20;;;1.70;;
10904;SDS011;5505;51.450;9.254;2023-04-24T09:49:46;1.50;;;1.40;;
10904;SDS011;5505;51.450;9.254;2023-04-24T09:52:34;2.03;;;1.77;;
10904;SDS011;5505;51.450;9.254;2023-04-24T09:55:21;1.67;;;1.30;;
10904;SDS011;5505;51.450;9.254;2023-04-24T09:58:08;2.80;;;1.50;;
10904;SDS011;5505;51.450;9.254;2023-04-24T10:00:55;2.13;;;1.57;;
10904;SDS011;5505;51.450;9.254;2023-04-24T10:03:44;1.47;;;1.23;;
10904;SDS011;5505;51.450;9.254;2023-04-24T10:06:33;1.20;;;1.20;;
10904;SDS011;5505;51.450;9.254;2023-04-24T10:09:21;1.40;;;1.30;;
10904;SDS011;5505;51.450;9.254;2023-04-24T10:12:08;2.50;;;1.27;;
10904;SDS011;5505;51.450;9.254;2023-04-24T10:14:56;1.13;;;1.00;;
10904;SDS011;5505;51.450;9.254;2023-04-24T10:17:43;0.67;;;0.67;;
10904;SDS011;5505;51.450;9.254;2023-04-24T10:20:39;0.67;;;0.60;;
10904;SDS011;5505;51.450;9.254;2023-04-24T10:23:26;0.87;;;0.87;;
10904;SDS011;5505;51.450;9.254;2023-04-24T10:26:13;0.80;;;0.80;;
10904;SDS011;5505;51.450;9.254;2023-04-24T10:29:02;0.50;;;0.50;;
10904;SDS011;5505;51.450;9.254;2023-04-24T10:31:54;0.60;;;0.60;;
10904;SDS011;5505;51.450;9.254;2023-04-24T10:34:41;0.47;;;0.47;;
10904;SDS011;5505;51.450;9.254;2023-04-24T10:37:30;0.30;;;0.30;;
10904;SDS011;5505;51.450;9.254;2023-04-24T10:40:25;0.20;;;0.20;;
10904;SDS011;5505;51.450;9.254;2023-04-24T10:43:13;0.50;;;0.30;;
10904;SDS011;5505;51.450;9.254;2023-04-24T10:46:03;0.10;;;0.10;;
10904;SDS011;5505;51.450;9.254;2023-04-24T10:48:52;0.10;;;0.10;;
10904;SDS011;5505;51.450;9.254;2023-04-24T10:51:44;0.30;;;0.20;;
10904;SDS011;5505;51.450;9.254;2023-04-24T10:54:35;0.97;;;0.30;;
10904;SDS011;5505;51.450;9.254;2023-04-24T10:57:26;0.30;;;0.30;;
10904;SDS011;5505;51.450;9.254;2023-04-24T11:00:16;0.10;;;0.10;;
10904;SDS011;5505;51.450;9.254;2023-04-24T11:03:05;1.70;;;0.97;;
10904;SDS011;5505;51.450;9.254;2023-04-24T11:05:53;0.43;;;0.40;;
10904;SDS011;5505;51.450;9.254;2023-04-24T11:08:42;0.50;;;0.33;;
10904;SDS011;5505;51.450;9.254;2023-04-24T11:11:31;0.30;;;0.30;;
10904;SDS011;5505;51.450;9.254;2023-04-24T11:14:18;0.30;;;0.30;;
10904;SDS011;5505;51.450;9.254;2023-04-24T11:17:06;0.20;;;0.20;;
10904;SDS011;5505;51.450;9.254;2023-04-24T11:19:54;0.40;;;0.23;;
10904;SDS011;5505;51.450;9.254;2023-04-24T11:22:47;0.20;;;0.20;;
10904;SDS011;5505;51.450;9.254;2023-04-24T11:25:35;0.33;;;0.20;;
10904;SDS011;5505;51.450;9.254;2023-04-24T11:28:23;0.10;;;0.10;;
10904;SDS011;5505;51.450;9.254;2023-04-24T11:34:17;0.70;;;0.20;;
10904;SDS011;5505;51.450;9.254;2023-04-24T11:37:04;0.53;;;0.20;;
10904;SDS011;5505;51.450;9.254;2023-04-24T11:39:52;0.40;;;0.40;;
10904;SDS011;5505;51.450;9.254;2023-04-24T11:42:40;0.63;;;0.30;;
10904;SDS011;5505;51.450;9.254;2023-04-24T11:45:29;0.20;;;0.10;;
10904;SDS011;5505;51.450;9.254;2023-04-24T11:48:18;0.40;;;0.40;;
10904;SDS011;5505;51.450;9.254;2023-04-24T11:51:05;0.40;;;0.20;;
10904;SDS011;5505;51.450;9.254;2023-04-24T11:53:53;0.90;;;0.10;;
10904;SDS011;5505;51.450;9.254;2023-04-24T11:56:44;0.60;;;0.50;;
10904;SDS011;5505;51.450;9.254;2023-04-24T11:59:34;0.97;;;0.67;;
10904;SDS011;5505;51.450;9.254;2023-04-24T12:02:24;0.57;;;0.30;;
10904;SDS011;5505;51.450;9.254;2023-04-24T12:05:18;0.33;;;0.33;;
10904;SDS011;5505;51.450;9.254;2023-04-24T12:08:06;2.37;;;2.00;;
10904;SDS011;5505;51.450;9.254;2023-04-24T12:10:53;1.20;;;1.10;;
10904;SDS011;5505;51.450;9.254;2023-04-24T12:13:40;0.27;;;0.27;;
10904;SDS011;5505;51.450;9.254;2023-04-24T12:16:27;0.40;;;0.10;;
10904;SDS011;5505;51.450;9.254;2023-04-24T12:19:20;0.10;;;0.10;;
10904;SDS011;5505;51.450;9.254;2023-04-24T12:22:07;0.20;;;0.20;;
10904;SDS011;5505;51.450;9.254;2023-04-24T12:24:58;0.17;;;0.10;;
10904;SDS011;5505;51.450;9.254;2023-04-24T12:27:45;0.20;;;0.10;;
10904;SDS011;5505;51.450;9.254;2023-04-24T12:30:33;0.10;;;0.10;;
10904;SDS011;5505;51.450;9.254;2023-04-24T12:33:21;0.47;;;0.10;;
10904;SDS011;5505;51.450;9.254;2023-04-24T12:36:11;0.10;;;0.10;;
10904;SDS011;5505;51.450;9.254;2023-04-24T12:39:00;0.60;;;0.20;;
10904;SDS011;5505;51.450;9.254;2023-04-24T12:41:50;0.10;;;0.10;;
10904;SDS011;5505;51.450;9.254;2023-04-24T12:44:37;1.07;;;0.10;;
10904;SDS011;5505;51.450;9.254;2023-04-24T12:47:24;0.40;;;0.10;;
10904;SDS011;5505;51.450;9.254;2023-04-24T12:50:12;0.70;;;0.20;;
10904;SDS011;5505;51.450;9.254;2023-04-24T12:53:00;0.20;;;0.20;;
10904;SDS011;5505;51.450;9.254;2023-04-24T12:55:47;0.20;;;0.20;;
10904;SDS011;5505;51.450;9.254;2023-04-24T12:58:37;0.10;;;0.10;;
10904;SDS011;5505;51.450;9.254;2023-04-24T13:01:25;0.30;;;0.20;;
10904;SDS011;5505;51.450;9.254;2023-04-24T13:04:13;0.30;;;0.30;;
10904;SDS011;5505;51.450;9.254;2023-04-24T13:07:01;0.20;;;0.20;;
10904;SDS011;5505;51.450;9.254;2023-04-24T13:09:50;0.73;;;0.30;;
10904;SDS011;5505;51.450;9.254;2023-04-24T13:12:37;0.77;;;0.30;;
10904;SDS011;5505;51.450;9.254;2023-04-24T13:15:25;0.63;;;0.30;;
10904;SDS011;5505;51.450;9.254;2023-04-24T13:18:12;0.47;;;0.37;;
10904;SDS011;5505;51.450;9.254;2023-04-24T13:20:59;0.40;;;0.33;;
10904;SDS011;5505;51.450;9.254;2023-04-24T13:23:46;0.47;;;0.47;;
10904;SDS011;5505;51.450;9.254;2023-04-24T13:26:35;0.60;;;0.50;;
10904;SDS011;5505;51.450;9.254;2023-04-24T13:29:22;1.13;;;0.60;;
10904;SDS011;5505;51.450;9.254;2023-04-24T13:32:10;0.80;;;0.80;;
10904;SDS011;5505;51.450;9.254;2023-04-24T13:34:57;0.80;;;0.80;;
10904;SDS011;5505;51.450;9.254;2023-04-24T13:37:44;1.63;;;1.10;;
10904;SDS011;5505;51.450;9.254;2023-04-24T13:40:31;1.50;;;1.20;;
10904;SDS011;5505;51.450;9.254;2023-04-24T13:43:19;1.10;;;1.00;;
10904;SDS011;5505;51.450;9.254;2023-04-24T13:46:06;1.37;;;1.07;;
10904;SDS011;5505;51.450;9.254;2023-04-24T13:48:54;1.10;;;1.00;;
10904;SDS011;5505;51.450;9.254;2023-04-24T13:51:41;2.93;;;1.50;;
10904;SDS011;5505;51.450;9.254;2023-04-24T13:54:28;12.30;;;4.53;;
10904;SDS011;5505;51.450;9.254;2023-04-24T13:57:16;9.50;;;3.83;;
10904;SDS011;5505;51.450;9.254;2023-04-24T14:00:05;5.87;;;2.93;;
10904;SDS011;5505;51.450;9.254;2023-04-24T14:02:55;3.30;;;2.10;;
10904;SDS011;5505;51.450;9.254;2023-04-24T14:05:42;3.53;;;2.07;;
10904;SDS011;5505;51.450;9.254;2023-04-24T14:08:29;2.70;;;2.20;;
10904;SDS011;5505;51.450;9.254;2023-04-24T14:11:16;2.63;;;2.43;;
10904;SDS011;5505;51.450;9.254;2023-04-24T14:14:03;2.60;;;2.40;;
10904;SDS011;5505;51.450;9.254;2023-04-24T14:16:52;2.60;;;2.40;;
10904;SDS011;5505;51.450;9.254;2023-04-24T14:19:39;3.80;;;3.03;;
10904;SDS011;5505;51.450;9.254;2023-04-24T14:22:26;3.97;;;3.07;;
10904;SDS011;5505;51.450;9.254;2023-04-24T14:25:13;3.57;;;2.90;;
10904;SDS011;5505;51.450;9.254;2023-04-24T14:28:01;3.73;;;3.00;;
10904;SDS011;5505;51.450;9.254;2023-04-24T14:30:48;3.87;;;2.93;;
10904;SDS011;5505;51.450;9.254;2023-04-24T14:33:36;6.00;;;3.00;;
10904;SDS011;5505;51.450;9.254;2023-04-24T14:36:23;5.23;;;3.50;;
10904;SDS011;5505;51.450;9.254;2023-04-24T14:39:11;5.00;;;3.70;;
10904;SDS011;5505;51.450;9.254;2023-04-24T14:41:58;3.60;;;3.23;;
10904;SDS011;5505;51.450;9.254;2023-04-24T14:44:45;5.90;;;3.47;;
10904;SDS011;5505;51.450;9.254;2023-04-24T14:47:33;3.57;;;3.27;;
10904;SDS011;5505;51.450;9.254;2023-04-24T14:50:21;4.03;;;3.23;;
10904;SDS011;5505;51.450;9.254;2023-04-24T14:53:12;3.67;;;3.33;;
10904;SDS011;5505;51.450;9.254;2023-04-24T14:55:59;5.00;;;3.63;;
10904;SDS011;5505;51.450;9.254;2023-04-24T14:58:46;4.67;;;3.43;;
10904;SDS011;5505;51.450;9.254;2023-04-24T15:01:33;6.20;;;3.47;;
10904;SDS011;5505;51.450;9.254;2023-04-24T15:04:21;4.93;;;3.70;;
10904;SDS011;5505;51.450;9.254;2023-04-24T15:07:09;6.60;;;3.93;;
10904;SDS011;5505;51.450;9.254;2023-04-24T15:09:56;6.13;;;3.73;;
10904;SDS011;5505;51.450;9.254;2023-04-24T15:12:43;4.00;;;3.40;;
10904;SDS011;5505;51.450;9.254;2023-04-24T15:15:30;4.53;;;3.00;;
10904;SDS011;5505;51.450;9.254;2023-04-24T15:18:17;6.40;;;4.00;;
10904;SDS011;5505;51.450;9.254;2023-04-24T15:21:04;6.30;;;4.30;;
10904;SDS011;5505;51.450;9.254;2023-04-24T15:23:53;5.40;;;4.57;;
10904;SDS011;5505;51.450;9.254;2023-04-24T15:26:40;3.50;;;3.20;;
10904;SDS011;5505;51.450;9.254;2023-04-24T15:29:27;5.83;;;4.17;;
10904;SDS011;5505;51.450;9.254;2023-04-24T15:32:14;4.60;;;3.97;;
10904;SDS011;5505;51.450;9.254;2023-04-24T15:35:01;5.07;;;3.60;;
10904;SDS011;5505;51.450;9.254;2023-04-24T15:37:49;4.67;;;3.27;;
10904;SDS011;5505;51.450;9.254;2023-04-24T15:40:37;6.30;;;3.73;;
10904;SDS011;5505;51.450;9.254;2023-04-24T15:43:24;4.73;;;3.43;;
10904;SDS011;5505;51.450;9.254;2023-04-24T15:46:11;4.93;;;3.33;;
10904;SDS011;5505;51.450;9.254;2023-04-24T15:48:58;3.53;;;3.13;;
10904;SDS011;5505;51.450;9.254;2023-04-24T15:51:45;4.83;;;3.00;;
10904;SDS011;5505;51.450;9.254;2023-04-24T15:54:33;4.77;;;2.93;;
10904;SDS011;5505;51.450;9.254;2023-04-24T15:57:21;4.63;;;2.90;;
10904;SDS011;5505;51.450;9.254;2023-04-24T16:00:09;4.13;;;2.60;;
10904;SDS011;5505;51.450;9.254;2023-04-24T16:02:56;4.27;;;3.00;;
10904;SDS011;5505;51.450;9.254;2023-04-24T16:05:43;4.37;;;3.20;;
10904;SDS011;5505;51.450;9.254;2023-04-24T16:08:30;5.73;;;3.80;;
10904;SDS011;5505;51.450;9.254;2023-04-24T16:11:17;4.97;;;3.33;;
10904;SDS011;5505;51.450;9.254;2023-04-24T16:14:06;4.43;;;3.20;;
10904;SDS011;5505;51.450;9.254;2023-04-24T16:16:53;2.93;;;2.63;;
10904;SDS011;5505;51.450;9.254;2023-04-24T16:19:40;4.73;;;2.80;;
10904;SDS011;5505;51.450;9.254;2023-04-24T16:22:27;2.60;;;2.30;;
10904;SDS011;5505;51.450;9.254;2023-04-24T16:25:14;5.13;;;2.67;;
10904;SDS011;5505;51.450;9.254;2023-04-24T16:28:01;3.90;;;2.83;;
10904;SDS011;5505;51.450;9.254;2023-04-24T16:30:50;2.57;;;2.33;;
10904;SDS011;5505;51.450;9.254;2023-04-24T16:33:37;3.47;;;2.50;;
10904;SDS011;5505;51.450;9.254;2023-04-24T16:36:24;3.43;;;2.30;;
10904;SDS011;5505;51.450;9.254;2023-04-24T16:39:12;3.10;;;2.43;;
10904;SDS011;5505;51.450;9.254;2023-04-24T16:41:59;4.67;;;2.37;;
10904;SDS011;5505;51.450;9.254;2023-04-24T16:44:47;3.30;;;1.90;;
10904;SDS011;5505;51.450;9.254;2023-04-24T16:47:36;3.23;;;2.30;;
10904;SDS011;5505;51.450;9.254;2023-04-24T16:50:23;2.30;;;1.73;;
10904;SDS011;5505;51.450;9.254;2023-04-24T16:53:10;2.77;;;1.57;;
10904;SDS011;5505;51.450;9.254;2023-04-24T16:55:57;3.30;;;2.20;;
10904;SDS011;5505;51.450;9.254;2023-04-24T16:58:44;2.13;;;1.93;;
10904;SDS011;5505;51.450;9.254;2023-04-24T17:01:31;1.57;;;1.40;;
10904;SDS011;5505;51.450;9.254;2023-04-24T17:04:20;1.90;;;1.70;;
10904;SDS011;5505;51.450;9.254;2023-04-24T17:07:07;3.43;;;1.70;;